createdAt,value
2022-08-26T00:01:44.781Z,9.95
2022-08-26T00:04:34.709Z,9.02
2022-08-26T00:07:22.901Z,10.13
2022-08-26T00:10:12.371Z,10.38
2022-08-26T00:13:00.625Z,10.85
2022-08-26T00:15:50.312Z,10.60
2022-08-26T00:18:40.774Z,9.77
2022-08-26T00:21:30.386Z,10.65
2022-08-26T00:24:19.076Z,10.23
2022-08-26T00:27:07.397Z,9.95
2022-08-26T00:29:55.589Z,10.80
2022-08-26T00:32:46.425Z,10.57
2022-08-26T00:35:35.123Z,11.60
2022-08-26T00:38:26.215Z,11.07
2022-08-26T00:41:14.759Z,11.45
2022-08-26T00:44:05.584Z,10.77
2022-08-26T00:46:58.400Z,10.40
2022-08-26T00:49:48.919Z,11.27
2022-08-26T00:52:38.494Z,11.23
2022-08-26T00:55:34.647Z,11.07
2022-08-26T00:58:32.707Z,10.63
2022-08-26T01:01:23.114Z,10.07
2022-08-26T01:04:12.698Z,11.73
2022-08-26T01:07:02.251Z,10.30
2022-08-26T01:09:50.755Z,10.18
2022-08-26T01:12:43.739Z,12.05
2022-08-26T01:15:36.470Z,12.70
2022-08-26T01:18:25.684Z,11.70
2022-08-26T01:21:22.551Z,12.40
2022-08-26T01:24:13.871Z,12.98
2022-08-26T01:27:06.075Z,13.93
2022-08-26T01:29:55.603Z,12.77
2022-08-26T01:32:44.737Z,12.82
2022-08-26T01:35:33.522Z,12.20
2022-08-26T01:38:23.641Z,11.70
2022-08-26T01:41:19.822Z,11.85
2022-08-26T01:44:15.723Z,11.77
2022-08-26T01:47:06.499Z,10.70
2022-08-26T01:49:57.515Z,11.82
2022-08-26T01:52:49.888Z,12.30
2022-08-26T01:55:46.092Z,12.38
2022-08-26T01:58:43.848Z,11.57
2022-08-26T02:01:32.664Z,12.43
2022-08-26T02:04:25.208Z,13.23
2022-08-26T02:07:13.844Z,12.60
2022-08-26T02:10:02.469Z,12.65
2022-08-26T02:12:51.623Z,12.00
2022-08-26T02:15:43.984Z,12.10
2022-08-26T02:18:36.579Z,13.45
2022-08-26T02:21:25.360Z,12.38
2022-08-26T02:24:16.934Z,15.32
2022-08-26T02:27:06.730Z,13.05
2022-08-26T02:29:58.044Z,13.82
2022-08-26T02:32:49.559Z,12.07
2022-08-26T02:35:39.231Z,12.95
2022-08-26T02:38:27.794Z,12.68
2022-08-26T02:41:16.122Z,13.73
2022-08-26T02:44:07.194Z,12.05
2022-08-26T02:46:55.569Z,13.77
2022-08-26T02:49:47.384Z,14.50
2022-08-26T02:52:35.707Z,15.00
2022-08-26T02:55:24.909Z,14.88
2022-08-26T02:58:13.064Z,14.25
2022-08-26T03:01:01.780Z,13.43
2022-08-26T03:03:53.309Z,14.55
2022-08-26T03:06:42.994Z,14.55
2022-08-26T03:09:35.881Z,13.75
2022-08-26T03:12:24.040Z,13.60
2022-08-26T03:15:17.813Z,13.73
2022-08-26T03:18:06.670Z,15.20
2022-08-26T03:20:55.444Z,15.98
2022-08-26T03:23:46.070Z,13.73
2022-08-26T03:26:34.340Z,14.45
2022-08-26T03:32:30.673Z,14.30
2022-08-26T03:35:19.032Z,15.93
2022-08-26T03:38:11.422Z,15.85
2022-08-26T03:41:01.328Z,16.02
2022-08-26T03:43:50.939Z,15.38
2022-08-26T03:46:39.674Z,16.95
2022-08-26T03:49:29.022Z,15.48
2022-08-26T03:52:17.310Z,15.00
2022-08-26T03:55:07.068Z,14.73
2022-08-26T03:57:56.536Z,14.48
2022-08-26T04:00:45.846Z,15.65
2022-08-26T04:03:52.141Z,15.40
2022-08-26T04:06:43.302Z,16.63
2022-08-26T04:09:32.961Z,16.33
2022-08-26T04:12:25.486Z,17.88
2022-08-26T04:15:17.772Z,17.23
2022-08-26T04:18:06.273Z,16.80
2022-08-26T04:20:54.719Z,16.65
2022-08-26T04:23:47.616Z,16.70
2022-08-26T04:26:39.495Z,16.73
2022-08-26T04:29:31.152Z,17.50
2022-08-26T04:32:21.196Z,16.52
2022-08-26T04:35:09.768Z,18.52
2022-08-26T04:37:58.877Z,17.45
2022-08-26T04:40:47.588Z,17.77
2022-08-26T04:43:35.770Z,16.75
2022-08-26T04:46:25.925Z,17.02
2022-08-26T04:49:15.585Z,18.15
2022-08-26T04:52:05.006Z,15.68
2022-08-26T04:54:53.378Z,17.15
2022-08-26T04:57:41.545Z,15.93
2022-08-26T05:00:29.760Z,16.38
2022-08-26T05:03:18.855Z,17.92
2022-08-26T05:06:08.769Z,17.05
2022-08-26T05:08:57.853Z,16.75
2022-08-26T05:11:48.586Z,16.60
2022-08-26T05:14:41.569Z,16.60
2022-08-26T05:17:29.819Z,17.58
2022-08-26T05:20:20.649Z,16.30
2022-08-26T05:23:15.928Z,16.80
2022-08-26T05:26:09.146Z,15.55
2022-08-26T05:28:59.017Z,16.20
2022-08-26T05:31:47.606Z,18.00
2022-08-26T05:34:37.474Z,16.48
2022-08-26T05:40:17.110Z,15.95
2022-08-26T05:43:10.390Z,16.33
2022-08-26T05:46:07.286Z,17.20
2022-08-26T05:48:55.709Z,16.08
2022-08-26T05:51:46.346Z,15.35
2022-08-26T05:54:36.025Z,15.32
2022-08-26T05:57:25.638Z,15.38
2022-08-26T06:00:16.169Z,15.85
2022-08-26T06:03:05.154Z,15.82
2022-08-26T06:05:53.553Z,16.05
2022-08-26T06:08:42.202Z,16.15
2022-08-26T06:11:32.636Z,15.50
2022-08-26T06:14:22.994Z,16.02
2022-08-26T06:17:11.323Z,15.70
2022-08-26T06:20:01.589Z,17.45
2022-08-26T06:23:06.711Z,15.57
2022-08-26T06:25:55.340Z,15.93
2022-08-26T06:28:45.816Z,16.00
2022-08-26T06:31:36.813Z,16.05
2022-08-26T06:34:26.590Z,15.82
2022-08-26T06:37:18.160Z,15.15
2022-08-26T06:40:07.497Z,15.40
2022-08-26T06:42:55.867Z,15.77
2022-08-26T06:45:45.844Z,14.88
2022-08-26T06:48:37.289Z,13.98
2022-08-26T06:51:27.561Z,13.38
2022-08-26T06:54:15.917Z,15.25
2022-08-26T06:57:04.117Z,14.98
2022-08-26T06:59:52.325Z,14.13
2022-08-26T07:02:40.648Z,15.35
2022-08-26T07:05:36.762Z,13.98
2022-08-26T07:08:24.937Z,13.07
2022-08-26T07:11:13.394Z,13.75
2022-08-26T07:14:01.993Z,12.60
2022-08-26T07:16:50.878Z,13.18
2022-08-26T07:19:39.071Z,12.18
2022-08-26T07:22:29.170Z,12.23
2022-08-26T07:25:19.142Z,12.48
2022-08-26T07:28:07.707Z,13.10
2022-08-26T07:30:56.181Z,11.98
2022-08-26T07:33:47.082Z,12.77
2022-08-26T07:36:35.820Z,12.65
2022-08-26T07:39:26.432Z,11.73
2022-08-26T07:42:18.492Z,11.68
2022-08-26T07:45:07.717Z,11.75
2022-08-26T07:47:55.952Z,11.30
2022-08-26T07:50:50.137Z,11.90
2022-08-26T07:53:39.850Z,11.05
2022-08-26T07:56:29.384Z,11.80
2022-08-26T07:59:18.685Z,11.35
2022-08-26T08:02:07.049Z,12.95
2022-08-26T08:04:56.847Z,11.65
2022-08-26T08:07:45.623Z,10.90
2022-08-26T08:10:36.498Z,11.75
2022-08-26T08:13:26.267Z,12.82
2022-08-26T08:16:14.565Z,11.35
2022-08-26T08:19:02.802Z,10.75
2022-08-26T08:21:52.060Z,11.20
2022-08-26T08:24:40.716Z,12.38
2022-08-26T08:27:28.929Z,11.25
2022-08-26T08:30:22.864Z,11.88
2022-08-26T08:33:12.461Z,11.45
2022-08-26T08:36:02.081Z,11.43
2022-08-26T08:38:50.896Z,10.57
2022-08-26T08:41:52.465Z,11.68
2022-08-26T08:44:44.085Z,11.40
2022-08-26T08:47:37.997Z,11.10
2022-08-26T08:50:29.605Z,11.02
2022-08-26T08:53:23.148Z,10.38
2022-08-26T08:56:17.730Z,9.65
2022-08-26T08:59:14.838Z,9.75
2022-08-26T09:02:11.192Z,10.95
2022-08-26T09:05:22.373Z,11.50
2022-08-26T09:13:52.346Z,10.00
2022-08-26T09:19:41.078Z,9.52
2022-08-26T09:22:32.560Z,10.73
2022-08-26T09:25:22.221Z,9.73
2022-08-26T09:28:16.863Z,10.35
2022-08-26T09:31:14.131Z,9.52
2022-08-26T09:34:17.487Z,9.90
2022-08-26T09:37:06.067Z,9.93
2022-08-26T09:40:12.211Z,10.18
2022-08-26T09:43:10.661Z,9.48
2022-08-26T09:46:13.464Z,10.07
2022-08-26T09:49:27.582Z,11.10
2022-08-26T09:52:22.397Z,9.77
2022-08-26T09:55:16.115Z,11.10
2022-08-26T09:58:07.896Z,10.45
2022-08-26T10:01:01.453Z,11.10
2022-08-26T10:03:50.280Z,10.10
2022-08-26T10:06:42.135Z,10.68
2022-08-26T10:09:34.005Z,10.98
2022-08-26T10:12:24.250Z,10.73
2022-08-26T10:18:08.174Z,9.68
2022-08-26T10:21:07.280Z,9.55
2022-08-26T10:23:59.856Z,8.70
2022-08-26T10:27:02.231Z,9.52
2022-08-26T10:29:54.292Z,10.55
2022-08-26T10:32:45.403Z,9.55
2022-08-26T10:35:36.085Z,10.18
2022-08-26T10:38:30.460Z,9.38
2022-08-26T10:41:24.198Z,8.95
2022-08-26T10:44:16.173Z,9.32
2022-08-26T10:47:14.027Z,9.40
2022-08-26T10:50:04.613Z,9.57
2022-08-26T10:53:03.036Z,8.63
2022-08-26T10:55:57.556Z,8.45
2022-08-26T10:58:58.392Z,8.73
2022-08-26T11:01:52.464Z,8.32
2022-08-26T11:04:49.849Z,8.45
2022-08-26T11:07:41.810Z,8.05
2022-08-26T11:10:57.956Z,8.55
2022-08-26T11:14:04.424Z,9.45
2022-08-26T11:16:55.133Z,9.30
2022-08-26T11:20:03.288Z,9.77
2022-08-26T11:22:59.620Z,8.32
2022-08-26T11:26:32.734Z,7.65
2022-08-26T11:29:59.297Z,7.40
2022-08-26T11:32:52.293Z,7.82
2022-08-26T11:35:50.782Z,7.38
2022-08-26T11:41:31.927Z,6.82
2022-08-26T11:44:21.830Z,5.93
2022-08-26T11:47:11.645Z,5.95
2022-08-26T11:50:15.239Z,6.00
2022-08-26T11:53:06.590Z,6.68
2022-08-26T11:55:58.149Z,5.78
2022-08-26T11:58:48.008Z,6.07
2022-08-26T12:01:38.069Z,6.03
2022-08-26T12:04:31.022Z,6.78
2022-08-26T12:07:25.747Z,7.07
2022-08-26T12:10:29.797Z,6.32
2022-08-26T12:13:22.977Z,6.50
2022-08-26T12:16:11.200Z,6.65
2022-08-26T12:18:59.885Z,6.32
2022-08-26T12:21:49.859Z,6.43
2022-08-26T12:24:44.940Z,6.32
2022-08-26T12:27:39.798Z,5.32
2022-08-26T12:30:29.706Z,6.15
2022-08-26T12:33:22.785Z,6.25
2022-08-26T12:36:12.136Z,6.20
2022-08-26T12:39:09.145Z,5.93
2022-08-26T12:41:59.102Z,6.13
2022-08-26T12:44:54.193Z,6.63
2022-08-26T12:47:44.547Z,6.50
2022-08-26T12:53:24.635Z,5.35
2022-08-26T12:56:28.236Z,5.97
2022-08-26T12:59:25.016Z,5.65
2022-08-26T13:02:37.718Z,5.78
2022-08-26T13:05:28.664Z,4.93
2022-08-26T13:08:25.781Z,4.15
2022-08-26T13:11:16.746Z,4.05
2022-08-26T13:14:07.581Z,2.92
2022-08-26T13:16:55.810Z,2.75
2022-08-26T13:19:45.340Z,2.78
2022-08-26T13:22:34.228Z,2.80
2022-08-26T13:25:22.538Z,2.80
2022-08-26T13:28:10.750Z,3.28
2022-08-26T13:30:59.734Z,3.70
2022-08-26T13:33:48.550Z,2.67
2022-08-26T13:36:39.165Z,3.25
2022-08-26T13:39:28.168Z,3.20
2022-08-26T13:42:16.521Z,3.10
2022-08-26T13:45:06.470Z,3.88
2022-08-26T13:47:54.624Z,3.58
2022-08-26T13:50:42.938Z,4.25
2022-08-26T13:53:32.656Z,4.45
2022-08-26T13:56:21.471Z,4.45
2022-08-26T13:59:09.942Z,3.83
2022-08-26T14:01:58.754Z,4.53
2022-08-26T14:04:47.413Z,5.03
2022-08-26T14:07:35.600Z,4.70
2022-08-26T14:10:25.745Z,4.50
2022-08-26T14:16:03.877Z,3.92
2022-08-26T14:18:52.626Z,4.40
2022-08-26T14:21:40.793Z,4.43
2022-08-26T14:24:29.268Z,3.95
2022-08-26T14:27:18.794Z,4.22
2022-08-26T14:30:08.361Z,4.03
2022-08-26T14:32:59.488Z,4.32
2022-08-26T14:35:49.026Z,4.10
2022-08-26T14:38:38.124Z,4.32
2022-08-26T14:41:27.141Z,4.25
2022-08-26T14:44:18.512Z,4.38
2022-08-26T14:47:07.433Z,4.65
2022-08-26T14:49:55.610Z,3.70
2022-08-26T14:53:01.713Z,4.03
2022-08-26T14:55:50.484Z,4.47
2022-08-26T14:58:38.744Z,4.00
2022-08-26T15:01:30.982Z,4.55
2022-08-26T15:04:20.390Z,5.13
2022-08-26T15:07:12.763Z,5.40
2022-08-26T15:10:01.101Z,5.40
2022-08-26T15:12:49.658Z,5.25
2022-08-26T15:15:38.017Z,5.18
2022-08-26T15:18:27.557Z,4.82
2022-08-26T15:21:15.766Z,4.55
2022-08-26T15:24:05.920Z,4.10
2022-08-26T15:26:54.621Z,4.55
2022-08-26T15:29:42.836Z,4.32
2022-08-26T15:32:31.337Z,3.90
2022-08-26T15:35:20.869Z,3.55
2022-08-26T15:38:09.197Z,3.67
2022-08-26T15:41:01.013Z,3.13
2022-08-26T15:43:51.485Z,3.13
2022-08-26T15:46:39.950Z,3.30
2022-08-26T15:49:28.507Z,3.17
2022-08-26T15:52:18.929Z,3.45
2022-08-26T15:55:08.106Z,2.80
2022-08-26T15:57:56.346Z,2.63
2022-08-26T16:00:45.273Z,3.15
2022-08-26T16:03:33.588Z,2.75
2022-08-26T16:06:24.624Z,3.30
2022-08-26T16:09:14.173Z,2.72
2022-08-26T16:12:02.440Z,2.53
2022-08-26T16:14:51.438Z,2.38
2022-08-26T16:17:41.069Z,2.50
2022-08-26T16:20:29.513Z,2.45
2022-08-26T16:23:17.843Z,2.33
2022-08-26T16:26:11.375Z,2.47
2022-08-26T16:28:59.610Z,3.05
2022-08-26T16:31:51.905Z,2.80
2022-08-26T16:34:56.770Z,2.75
2022-08-26T16:37:45.820Z,2.58
2022-08-26T16:40:34.397Z,2.92
2022-08-26T16:43:23.953Z,3.10
2022-08-26T16:46:14.186Z,3.10
2022-08-26T16:49:04.161Z,3.05
2022-08-26T16:51:52.347Z,3.38
2022-08-26T16:54:41.551Z,3.38
2022-08-26T16:57:29.737Z,3.03
2022-08-26T17:00:24.484Z,3.25
2022-08-26T17:03:13.009Z,3.45
2022-08-26T17:06:01.411Z,3.40
2022-08-26T17:08:49.668Z,3.35
2022-08-26T17:11:37.929Z,3.45
2022-08-26T17:14:26.134Z,3.35
2022-08-26T17:17:15.716Z,3.30
2022-08-26T17:20:08.408Z,3.13
2022-08-26T17:22:56.892Z,3.47
2022-08-26T17:25:45.462Z,3.35
2022-08-26T17:28:34.084Z,3.80
2022-08-26T17:31:23.376Z,3.85
2022-08-26T17:34:13.007Z,4.13
2022-08-26T17:37:01.289Z,4.05
2022-08-26T17:39:49.526Z,4.50
2022-08-26T17:42:38.329Z,3.88
2022-08-26T17:45:27.280Z,4.05
2022-08-26T17:48:15.493Z,3.50
2022-08-26T17:51:09.378Z,3.95
2022-08-26T17:53:57.807Z,4.18
2022-08-26T17:56:45.984Z,4.28
2022-08-26T17:59:34.182Z,3.80
2022-08-26T18:02:23.366Z,4.15
2022-08-26T18:05:13.589Z,4.50
2022-08-26T18:10:51.808Z,4.10
2022-08-26T18:13:46.048Z,4.47
2022-08-26T18:16:38.401Z,6.50
2022-08-26T18:19:26.808Z,6.57
2022-08-26T18:22:15.726Z,5.75
2022-08-26T18:25:06.930Z,5.65
2022-08-26T18:27:55.123Z,5.47
2022-08-26T18:30:43.582Z,5.78
2022-08-26T18:33:31.806Z,5.63
2022-08-26T18:36:23.160Z,5.70
2022-08-26T18:39:12.523Z,6.35
2022-08-26T18:42:02.041Z,5.68
2022-08-26T18:44:51.234Z,5.63
2022-08-26T18:47:39.761Z,6.15
2022-08-26T18:50:28.277Z,5.18
2022-08-26T18:53:17.588Z,4.70
2022-08-26T18:56:05.854Z,4.47
2022-08-26T18:58:55.508Z,4.65
2022-08-26T19:01:45.268Z,4.70
2022-08-26T19:04:33.744Z,4.38
2022-08-26T19:07:22.461Z,4.50
2022-08-26T19:10:11.593Z,4.43
2022-08-26T19:13:00.875Z,4.75
2022-08-26T19:15:52.158Z,4.40
2022-08-26T19:18:40.401Z,4.05
2022-08-26T19:21:29.524Z,4.28
2022-08-26T19:24:18.869Z,4.20
2022-08-26T19:27:08.309Z,4.97
2022-08-26T19:29:58.393Z,4.20
2022-08-26T19:32:47.914Z,4.65
2022-08-26T19:35:37.133Z,4.85
2022-08-26T19:38:25.320Z,4.80
2022-08-26T19:41:19.233Z,4.90
2022-08-26T19:44:10.321Z,4.85
2022-08-26T19:46:58.461Z,5.40
2022-08-26T19:49:48.007Z,4.60
2022-08-26T19:52:36.475Z,5.55
2022-08-26T19:55:26.145Z,5.63
2022-08-26T19:58:14.536Z,6.20
2022-08-26T20:01:02.837Z,6.50
2022-08-26T20:03:51.378Z,5.90
2022-08-26T20:06:41.005Z,6.32
2022-08-26T20:09:29.970Z,5.43
2022-08-26T20:12:18.693Z,5.70
2022-08-26T20:15:08.084Z,6.90
2022-08-26T20:17:56.273Z,6.65
2022-08-26T20:21:02.085Z,7.03
2022-08-26T20:23:51.898Z,7.28
2022-08-26T20:26:42.036Z,7.78
2022-08-26T20:29:30.259Z,7.30
2022-08-26T20:32:18.505Z,8.20
2022-08-26T20:35:08.677Z,7.80
2022-08-26T20:37:56.858Z,8.93
2022-08-26T20:40:46.577Z,8.05
2022-08-26T20:43:34.788Z,9.50
2022-08-26T20:46:24.836Z,9.60
2022-08-26T20:49:14.790Z,11.43
2022-08-26T20:52:03.197Z,10.30
2022-08-26T20:54:51.406Z,11.43
2022-08-26T20:57:43.329Z,11.45
2022-08-26T21:00:31.563Z,11.02
2022-08-26T21:03:19.971Z,10.30
2022-08-26T21:06:09.117Z,10.57
2022-08-26T21:08:57.855Z,10.20
2022-08-26T21:11:46.365Z,10.50
2022-08-26T21:14:35.872Z,9.88
2022-08-26T21:17:24.254Z,10.63
2022-08-26T21:20:12.404Z,11.23
2022-08-26T21:23:00.626Z,10.35
2022-08-26T21:25:49.620Z,10.73
2022-08-26T21:28:39.345Z,10.70
2022-08-26T21:31:29.657Z,10.50
2022-08-26T21:34:18.995Z,10.32
2022-08-26T21:37:16.417Z,10.60
2022-08-26T21:40:05.955Z,11.38
2022-08-26T21:42:54.180Z,10.38
2022-08-26T21:45:42.476Z,10.93
2022-08-26T21:48:34.738Z,11.73
2022-08-26T21:51:26.052Z,10.57
2022-08-26T21:54:14.952Z,10.13
2022-08-26T21:57:03.477Z,9.85
2022-08-26T21:59:52.419Z,10.13
2022-08-26T22:02:40.679Z,9.80
2022-08-26T22:05:30.482Z,10.82
2022-08-26T22:08:19.805Z,10.67
2022-08-26T22:11:09.518Z,10.65
2022-08-26T22:13:57.965Z,11.00
2022-08-26T22:16:50.726Z,10.15
2022-08-26T22:19:46.282Z,9.88
2022-08-26T22:22:36.224Z,10.23
2022-08-26T22:25:24.453Z,10.80
2022-08-26T22:28:12.711Z,9.48
2022-08-26T22:31:01.983Z,8.45
2022-08-26T22:33:50.520Z,7.00
2022-08-26T22:36:44.027Z,5.97
2022-08-26T22:39:34.180Z,5.63
2022-08-26T22:42:22.440Z,4.68
2022-08-26T22:45:12.204Z,4.32
2022-08-26T22:48:04.583Z,4.80
2022-08-26T22:50:59.583Z,4.30
2022-08-26T22:53:48.464Z,4.95
2022-08-26T22:56:38.479Z,5.53
2022-08-26T22:59:27.025Z,5.68
2022-08-26T23:02:15.506Z,5.80
2022-08-26T23:05:03.679Z,7.05
2022-08-26T23:07:51.912Z,7.95
2022-08-26T23:10:42.639Z,7.88
2022-08-26T23:13:32.152Z,7.68
2022-08-26T23:16:21.144Z,7.72
2022-08-26T23:19:10.265Z,7.68
2022-08-26T23:21:58.423Z,7.57
2022-08-26T23:24:46.593Z,8.00
2022-08-26T23:27:35.270Z,7.65
2022-08-26T23:30:27.363Z,7.80
2022-08-26T23:33:15.590Z,7.57
2022-08-26T23:36:06.578Z,8.32
2022-08-26T23:38:54.989Z,8.00
2022-08-26T23:41:44.465Z,8.80
2022-08-26T23:44:33.244Z,8.27
2022-08-26T23:47:22.804Z,7.60
2022-08-26T23:50:11.942Z,8.50
2022-08-26T23:53:08.824Z,8.10
2022-08-26T23:55:56.979Z,8.60
2022-08-26T23:58:45.321Z,7.63
